Time;durP1;ratioP1;P1;durP2;ratioP2;P2;SDS_P1;SDS_P2;PMS_P1;PMS_P2;Temp;Humidity;BMP_temperature;BMP_pressure;BME280_temperature;BME280_humidity;BME280_pressure;Samples;Min_cycle;Max_cycle;Signal;HPM_P1;HPM_P2
2020/12/02 00:01:53;;;;;;;44.20;28.87;;;;;;;;;;5119729;28;20795;-74
2020/12/02 00:04:22;;;;;;;42.40;28.17;;;;;;;;;;5120275;28;20453;-73
2020/12/02 00:06:51;;;;;;;38.70;25.90;;;;;;;;;;5119354;28;20455;-73
2020/12/02 00:09:19;;;;;;;43.20;28.17;;;;;;;;;;5119988;28;20777;-74
2020/12/02 00:11:48;;;;;;;42.87;26.97;;;;;;;;;;5119643;28;20493;-73
2020/12/02 00:14:20;;;;;;;39.70;25.70;;;;;;;;;;5119004;28;20503;-73
2020/12/02 00:16:48;;;;;;;38.57;25.07;;;;;;;;;;5118953;28;20459;-73
2020/12/02 00:19:16;;;;;;;41.87;26.87;;;;;;;;;;5118767;28;20782;-73
2020/12/02 00:21:58;;;;;;;40.10;25.87;;;;;;;;;;5119139;28;20886;-73
2020/12/02 00:24:26;;;;;;;44.60;28.27;;;;;;;;;;5118089;28;20451;-73
2020/12/02 00:26:53;;;;;;;41.60;26.60;;;;;;;;;;5118951;28;20455;-73
2020/12/02 00:29:21;;;;;;;43.30;27.00;;;;;;;;;;5119216;28;20443;-73
2020/12/02 00:31:49;;;;;;;41.60;26.47;;;;;;;;;;5119275;28;20487;-73
2020/12/02 00:34:17;;;;;;;47.20;26.80;;;;;;;;;;5118554;28;20444;-73
2020/12/02 00:36:44;;;;;;;43.20;27.03;;;;;;;;;;5119064;28;20460;-73
2020/12/02 00:39:11;;;;;;;43.50;25.63;;;;;;;;;;5118246;28;20791;-73
2020/12/02 00:41:39;;;;;;;41.67;26.97;;;;;;;;;;5118592;28;20787;-73
2020/12/02 00:44:06;;;;;;;40.43;26.70;;;;;;;;;;5119099;28;20777;-73
2020/12/02 00:46:34;;;;;;;37.73;25.57;;;;;;;;;;5118746;28;20447;-73
2020/12/02 00:49:03;;;;;;;42.73;26.40;;;;;;;;;;5119260;28;20542;-73
2020/12/02 00:51:31;;;;;;;41.60;26.13;;;;;;;;;;5118003;28;20490;-73
2020/12/02 00:53:58;;;;;;;41.40;26.73;;;;;;;;;;5118172;28;20451;-73
2020/12/02 00:56:25;;;;;;;43.00;26.60;;;;;;;;;;5117926;28;20451;-73
2020/12/02 00:58:57;;;;;;;40.47;26.50;;;;;;;;;;5118567;28;20474;-73
2020/12/02 01:01:30;;;;;;;40.77;25.80;;;;;;;;;;5118336;28;20449;-73
2020/12/02 01:03:59;;;;;;;44.37;26.60;;;;;;;;;;5118510;28;20443;-73
2020/12/02 01:06:27;;;;;;;44.50;26.87;;;;;;;;;;5118263;28;20483;-73
2020/12/02 01:08:54;;;;;;;37.60;27.30;;;;;;;;;;5117952;28;20805;-74
2020/12/02 01:11:23;;;;;;;46.47;27.17;;;;;;;;;;5117954;28;20587;-73
2020/12/02 01:13:54;;;;;;;43.17;27.53;;;;;;;;;;5117929;28;20442;-73
2020/12/02 01:16:26;;;;;;;44.73;26.30;;;;;;;;;;5117829;28;20479;-73
2020/12/02 01:18:54;;;;;;;42.67;28.10;;;;;;;;;;5117759;28;20463;-73
2020/12/02 01:21:25;;;;;;;44.63;27.83;;;;;;;;;;5118174;28;20447;-73
2020/12/02 01:23:55;;;;;;;43.83;27.97;;;;;;;;;;5117767;28;20723;-73
2020/12/02 01:26:24;;;;;;;42.60;26.33;;;;;;;;;;5117425;28;20526;-73
2020/12/02 01:28:53;;;;;;;40.30;25.47;;;;;;;;;;5118396;28;20462;-73
2020/12/02 01:31:23;;;;;;;44.53;27.40;;;;;;;;;;5117448;28;20483;-73
2020/12/02 01:33:51;;;;;;;45.90;27.50;;;;;;;;;;5117829;28;20537;-73
2020/12/02 01:36:20;;;;;;;44.13;27.77;;;;;;;;;;5117712;28;20459;-73
2020/12/02 01:38:50;;;;;;;45.57;29.30;;;;;;;;;;5117972;28;20451;-73
2020/12/02 01:41:19;;;;;;;40.53;26.23;;;;;;;;;;5117813;28;20447;-73
2020/12/02 01:43:46;;;;;;;40.37;25.67;;;;;;;;;;5117425;28;20455;-73
2020/12/02 01:46:24;;;;;;;44.30;26.50;;;;;;;;;;5118104;28;20447;-73
2020/12/02 01:48:58;;;;;;;39.77;25.93;;;;;;;;;;5117682;28;20863;-73
2020/12/02 01:51:35;;;;;;;37.63;24.67;;;;;;;;;;5117337;28;20486;-73
2020/12/02 01:54:05;;;;;;;38.03;26.00;;;;;;;;;;5117819;28;20450;-73
2020/12/02 01:56:42;;;;;;;43.80;25.90;;;;;;;;;;5117670;28;20538;-73
2020/12/02 01:59:14;;;;;;;41.03;27.20;;;;;;;;;;5117864;28;20463;-73
2020/12/02 02:01:52;;;;;;;40.47;25.47;;;;;;;;;;5117580;28;20454;-73
2020/12/02 02:04:20;;;;;;;40.43;27.00;;;;;;;;;;5117288;28;20451;-73
2020/12/02 02:07:03;;;;;;;44.73;26.93;;;;;;;;;;5116722;28;20843;-73
2020/12/02 02:09:31;;;;;;;41.30;25.87;;;;;;;;;;5117413;28;20455;-73
2020/12/02 02:12:10;;;;;;;35.47;24.50;;;;;;;;;;5116850;28;20529;-73
2020/12/02 02:14:44;;;;;;;43.57;26.50;;;;;;;;;;5116442;28;20455;-73
2020/12/02 02:17:11;;;;;;;41.27;25.67;;;;;;;;;;5116613;28;20470;-73
2020/12/02 02:19:45;;;;;;;41.93;25.93;;;;;;;;;;5115889;28;20451;-73
2020/12/02 02:22:12;;;;;;;42.10;25.73;;;;;;;;;;5115994;28;20534;-73
2020/12/02 02:24:43;;;;;;;43.00;25.70;;;;;;;;;;5115967;28;20541;-74
2020/12/02 02:27:11;;;;;;;49.10;28.17;;;;;;;;;;5116536;28;20734;-73
2020/12/02 02:29:42;;;;;;;39.43;25.27;;;;;;;;;;5116244;28;20906;-73
2020/12/02 02:32:11;;;;;;;41.00;26.87;;;;;;;;;;5116526;28;20485;-73
2020/12/02 02:34:39;;;;;;;42.07;27.50;;;;;;;;;;5116606;28;20555;-73
2020/12/02 02:37:08;;;;;;;39.53;25.40;;;;;;;;;;5115800;28;20497;-73
2020/12/02 02:39:35;;;;;;;40.00;25.73;;;;;;;;;;5116271;28;20661;-73
2020/12/02 02:42:04;;;;;;;43.80;27.17;;;;;;;;;;5116070;28;20439;-73
2020/12/02 02:44:33;;;;;;;37.23;25.73;;;;;;;;;;5117355;28;20455;-73
2020/12/02 02:47:01;;;;;;;45.37;28.13;;;;;;;;;;5115944;28;20454;-73
2020/12/02 02:49:29;;;;;;;44.27;26.80;;;;;;;;;;5115744;28;20455;-73
2020/12/02 02:51:56;;;;;;;41.43;24.80;;;;;;;;;;5115953;28;20773;-73
2020/12/02 02:54:24;;;;;;;46.20;27.70;;;;;;;;;;5116340;28;20455;-73
2020/12/02 02:56:53;;;;;;;42.90;25.43;;;;;;;;;;5116404;28;20458;-73
2020/12/02 02:59:23;;;;;;;41.60;26.30;;;;;;;;;;5116268;28;20465;-73
2020/12/02 03:01:54;;;;;;;42.70;25.77;;;;;;;;;;5116558;28;20716;-73
2020/12/02 03:04:21;;;;;;;41.50;27.30;;;;;;;;;;5116174;28;20455;-73
2020/12/02 03:06:49;;;;;;;42.30;26.40;;;;;;;;;;5116622;28;20726;-73
2020/12/02 03:09:17;;;;;;;44.80;25.93;;;;;;;;;;5116512;28;20459;-73
2020/12/02 03:11:44;;;;;;;40.60;26.63;;;;;;;;;;5116465;28;21136;-73
2020/12/02 03:14:12;;;;;;;38.20;25.00;;;;;;;;;;5116636;28;20447;-73
2020/12/02 03:16:41;;;;;;;45.27;28.10;;;;;;;;;;5117017;28;20451;-73
2020/12/02 03:19:12;;;;;;;37.73;24.73;;;;;;;;;;5116860;28;20447;-73
2020/12/02 03:21:40;;;;;;;42.20;28.00;;;;;;;;;;5116170;28;20724;-73
2020/12/02 03:24:09;;;;;;;39.17;25.57;;;;;;;;;;5116318;28;20542;-73
2020/12/02 03:26:36;;;;;;;42.43;26.47;;;;;;;;;;5117214;28;20454;-73
2020/12/02 03:29:04;;;;;;;39.77;25.17;;;;;;;;;;5116554;28;20447;-73
2020/12/02 03:31:32;;;;;;;39.80;24.67;;;;;;;;;;5116339;28;20491;-74
2020/12/02 03:33:59;;;;;;;40.30;25.13;;;;;;;;;;5117251;28;20860;-74
2020/12/02 03:36:28;;;;;;;39.90;25.30;;;;;;;;;;5117090;28;20462;-74
2020/12/02 03:38:58;;;;;;;42.40;27.10;;;;;;;;;;5115534;28;20477;-73
2020/12/02 03:41:26;;;;;;;43.13;26.23;;;;;;;;;;5116001;28;20451;-73
2020/12/02 03:43:53;;;;;;;41.50;26.77;;;;;;;;;;5116721;28;20435;-73
2020/12/02 03:46:23;;;;;;;43.13;26.47;;;;;;;;;;5116287;28;20458;-73
2020/12/02 03:48:51;;;;;;;42.03;25.37;;;;;;;;;;5116433;28;20732;-73
2020/12/02 03:51:19;;;;;;;38.47;25.33;;;;;;;;;;5115764;28;20782;-73
2020/12/02 03:53:47;;;;;;;41.60;26.00;;;;;;;;;;5116032;28;20745;-73
2020/12/02 03:56:19;;;;;;;39.83;25.77;;;;;;;;;;5115506;28;20464;-73
2020/12/02 03:58:47;;;;;;;40.57;24.53;;;;;;;;;;5118261;28;20457;-73
2020/12/02 04:01:15;;;;;;;42.50;25.57;;;;;;;;;;5119619;28;20439;-73
2020/12/02 04:03:42;;;;;;;38.33;24.60;;;;;;;;;;5119742;28;20749;-73
2020/12/02 04:06:11;;;;;;;37.83;24.93;;;;;;;;;;5119772;28;20709;-73
2020/12/02 04:08:38;;;;;;;38.70;25.27;;;;;;;;;;5120104;28;20695;-73
2020/12/02 04:11:07;;;;;;;47.30;30.70;;;;;;;;;;5119393;28;20462;-73
2020/12/02 04:13:35;;;;;;;36.00;25.77;;;;;;;;;;5119785;28;20862;-73
2020/12/02 04:16:05;;;;;;;40.00;25.80;;;;;;;;;;5118204;28;20455;-73
2020/12/02 04:18:33;;;;;;;39.53;25.33;;;;;;;;;;5118790;28;20443;-73
2020/12/02 04:21:01;;;;;;;38.33;24.40;;;;;;;;;;5119525;28;20879;-73
2020/12/02 04:23:28;;;;;;;42.00;25.60;;;;;;;;;;5119763;28;20529;-73
2020/12/02 04:25:56;;;;;;;38.80;23.60;;;;;;;;;;5118879;28;20539;-73
2020/12/02 04:28:25;;;;;;;41.30;24.77;;;;;;;;;;5118640;28;20471;-73
2020/12/02 04:30:53;;;;;;;37.60;24.10;;;;;;;;;;5118764;28;20694;-73
2020/12/02 04:33:20;;;;;;;40.90;25.03;;;;;;;;;;5118997;28;20483;-73
2020/12/02 04:35:47;;;;;;;38.70;24.40;;;;;;;;;;5118853;28;20720;-72
2020/12/02 04:38:15;;;;;;;34.00;24.00;;;;;;;;;;5119106;28;20458;-73
2020/12/02 04:40:42;;;;;;;37.07;25.00;;;;;;;;;;5119032;28;20474;-74
2020/12/02 04:43:14;;;;;;;35.80;23.87;;;;;;;;;;5119353;27;20448;-73
2020/12/02 04:45:42;;;;;;;36.23;24.10;;;;;;;;;;5118797;28;20466;-73
2020/12/02 04:48:11;;;;;;;36.30;23.77;;;;;;;;;;5118571;28;20455;-73
2020/12/02 04:50:38;;;;;;;36.83;23.63;;;;;;;;;;5117983;28;20465;-73
2020/12/02 04:53:11;;;;;;;40.70;25.10;;;;;;;;;;5118403;28;20495;-73
2020/12/02 04:55:39;;;;;;;36.83;24.37;;;;;;;;;;5118983;28;20706;-73
2020/12/02 04:58:16;;;;;;;37.37;23.53;;;;;;;;;;5118668;28;20447;-74
2020/12/02 05:00:47;;;;;;;35.40;23.77;;;;;;;;;;5118447;28;20871;-73
2020/12/02 05:03:16;;;;;;;38.47;24.23;;;;;;;;;;5118606;28;20847;-73
2020/12/02 05:05:46;;;;;;;35.43;22.97;;;;;;;;;;5117889;28;20896;-73
2020/12/02 05:08:17;;;;;;;40.93;24.40;;;;;;;;;;5117893;28;20458;-73
2020/12/02 05:10:45;;;;;;;39.83;22.10;;;;;;;;;;5117990;28;20451;-73
2020/12/02 05:13:12;;;;;;;35.17;24.93;;;;;;;;;;5117651;28;20490;-73
2020/12/02 05:15:39;;;;;;;36.53;23.33;;;;;;;;;;5117536;28;20726;-73
2020/12/02 05:18:15;;;;;;;36.33;23.30;;;;;;;;;;5121299;27;20547;-73
2020/12/02 05:20:44;;;;;;;36.43;22.23;;;;;;;;;;5138331;27;20468;-73
2020/12/02 05:23:12;;;;;;;36.30;23.80;;;;;;;;;;5137846;27;20466;-72
2020/12/02 05:25:40;;;;;;;38.60;24.33;;;;;;;;;;5137715;27;20867;-73
2020/12/02 05:28:19;;;;;;;36.10;24.27;;;;;;;;;;5138907;27;20451;-74
2020/12/02 05:30:47;;;;;;;37.00;24.90;;;;;;;;;;5137703;27;20458;-74
2020/12/02 05:33:24;;;;;;;34.73;22.23;;;;;;;;;;5137977;27;20525;-73
2020/12/02 05:35:53;;;;;;;32.60;22.70;;;;;;;;;;5138672;27;20506;-73
2020/12/02 05:38:27;;;;;;;33.20;20.87;;;;;;;;;;5137768;27;20457;-74
2020/12/02 05:40:58;;;;;;;37.93;21.77;;;;;;;;;;5117068;27;20537;-74
2020/12/02 05:43:30;;;;;;;35.73;22.80;;;;;;;;;;5117218;28;20463;-73
2020/12/02 05:45:59;;;;;;;35.60;24.60;;;;;;;;;;5117745;28;20447;-73
2020/12/02 05:48:29;;;;;;;37.70;23.60;;;;;;;;;;5117434;28;20482;-73
2020/12/02 05:50:57;;;;;;;33.57;22.73;;;;;;;;;;5117006;28;20459;-73
2020/12/02 05:53:27;;;;;;;32.20;21.87;;;;;;;;;;5116452;28;20488;-73
2020/12/02 05:55:58;;;;;;;37.70;23.07;;;;;;;;;;5115624;28;20501;-73
2020/12/02 05:58:28;;;;;;;35.67;21.93;;;;;;;;;;5123829;27;20763;-74
2020/12/02 06:00:56;;;;;;;36.47;23.10;;;;;;;;;;5148935;27;20445;-73
2020/12/02 06:03:24;;;;;;;35.73;21.77;;;;;;;;;;5152171;27;20450;-73
2020/12/02 06:05:59;;;;;;;31.47;21.77;;;;;;;;;;5116425;28;20616;-73
2020/12/02 06:08:34;;;;;;;36.50;24.30;;;;;;;;;;5115361;28;20443;-73
2020/12/02 06:11:25;;;;;;;31.97;21.93;;;;;;;;;;5115140;28;20744;-73
2020/12/02 06:13:56;;;;;;;32.57;23.03;;;;;;;;;;5104050;27;20454;-73
2020/12/02 06:16:35;;;;;;;32.70;22.83;;;;;;;;;;5136244;27;20447;-73
2020/12/02 06:19:04;;;;;;;34.20;22.83;;;;;;;;;;5135807;27;20718;-73
2020/12/02 06:21:38;;;;;;;32.33;22.30;;;;;;;;;;5133954;27;20430;-73
2020/12/02 06:24:05;;;;;;;32.27;22.40;;;;;;;;;;5135080;27;20462;-74
2020/12/02 06:26:37;;;;;;;31.53;21.97;;;;;;;;;;5133480;27;20445;-73
2020/12/02 06:29:08;;;;;;;36.03;22.77;;;;;;;;;;5135131;27;20450;-73
2020/12/02 06:31:36;;;;;;;36.47;23.60;;;;;;;;;;5133486;27;20548;-73
2020/12/02 06:34:08;;;;;;;36.63;25.40;;;;;;;;;;5134081;27;20688;-73
2020/12/02 06:36:37;;;;;;;36.87;23.63;;;;;;;;;;5116254;27;20728;-75
2020/12/02 06:39:23;;;;;;;32.53;22.67;;;;;;;;;;5115275;28;20745;-73
2020/12/02 06:41:51;;;;;;;38.90;24.23;;;;;;;;;;5129230;27;20558;-74
2020/12/02 06:44:46;;;;;;;32.73;23.20;;;;;;;;;;5135950;27;20539;-74
2020/12/02 06:47:21;;;;;;;34.03;23.03;;;;;;;;;;5135495;27;20470;-74
2020/12/02 06:49:51;;;;;;;36.53;23.80;;;;;;;;;;5134612;27;20522;-76
2020/12/02 06:52:24;;;;;;;36.00;23.13;;;;;;;;;;5134224;27;20652;-74
2020/12/02 06:55:12;;;;;;;34.83;22.63;;;;;;;;;;5134615;28;20733;-74
2020/12/02 06:57:40;;;;;;;34.23;22.37;;;;;;;;;;5134218;28;20443;-73
2020/12/02 07:00:10;;;;;;;35.53;22.73;;;;;;;;;;5134666;28;20453;-74
2020/12/02 07:02:48;;;;;;;35.77;22.90;;;;;;;;;;5137114;27;20464;-73
2020/12/02 07:05:22;;;;;;;36.77;23.67;;;;;;;;;;5152202;27;20445;-75
2020/12/02 07:07:50;;;;;;;36.17;23.67;;;;;;;;;;5135431;27;20482;-73
2020/12/02 07:10:20;;;;;;;40.23;25.20;;;;;;;;;;5135654;27;20451;-73
2020/12/02 07:12:48;;;;;;;37.47;22.77;;;;;;;;;;5135650;27;20517;-73
2020/12/02 07:15:16;;;;;;;39.30;24.80;;;;;;;;;;5135741;27;20447;-73
2020/12/02 07:17:44;;;;;;;34.30;22.70;;;;;;;;;;5135444;27;20462;-73
2020/12/02 07:20:16;;;;;;;36.30;23.30;;;;;;;;;;5135567;27;20446;-72
2020/12/02 07:22:54;;;;;;;31.87;22.20;;;;;;;;;;5153242;27;20454;-74
2020/12/02 07:25:32;;;;;;;37.30;25.07;;;;;;;;;;5156386;27;20489;-74
2020/12/02 07:28:16;;;;;;;37.60;25.47;;;;;;;;;;5144620;27;20466;-73
2020/12/02 07:30:45;;;;;;;33.90;22.27;;;;;;;;;;5135292;27;20530;-73
2020/12/02 07:33:21;;;;;;;34.90;24.47;;;;;;;;;;5136456;27;20489;-72
2020/12/02 07:35:50;;;;;;;39.37;25.53;;;;;;;;;;5139054;27;20449;-73
2020/12/02 07:38:18;;;;;;;35.37;23.43;;;;;;;;;;5139144;27;21039;-74
2020/12/02 07:40:49;;;;;;;38.00;24.57;;;;;;;;;;5139678;27;20922;-73
2020/12/02 07:43:25;;;;;;;39.30;23.30;;;;;;;;;;5138994;27;20454;-73
2020/12/02 07:46:07;;;;;;;40.33;24.17;;;;;;;;;;5140079;27;20465;-72
2020/12/02 07:48:41;;;;;;;34.57;23.67;;;;;;;;;;5139443;27;20446;-73
2020/12/02 07:51:11;;;;;;;38.43;25.10;;;;;;;;;;5137668;27;20515;-73
2020/12/02 07:53:43;;;;;;;32.10;21.63;;;;;;;;;;5131860;27;20486;-73
2020/12/02 07:56:16;;;;;;;36.20;24.40;;;;;;;;;;5130193;27;21028;-73
2020/12/02 07:58:46;;;;;;;39.47;26.50;;;;;;;;;;5138584;27;20462;-73
2020/12/02 08:01:34;;;;;;;35.13;23.77;;;;;;;;;;5139263;27;20454;-73
2020/12/02 08:04:16;;;;;;;35.23;22.17;;;;;;;;;;5100808;28;20466;-73
2020/12/02 08:06:47;;;;;;;39.53;25.83;;;;;;;;;;5118392;28;20854;-73
2020/12/02 08:09:15;;;;;;;37.53;25.17;;;;;;;;;;5118777;28;20848;-73
2020/12/02 08:11:50;;;;;;;35.73;22.40;;;;;;;;;;5117289;28;20454;-72
2020/12/02 08:14:22;;;;;;;39.03;23.37;;;;;;;;;;5118698;27;20435;-73
2020/12/02 08:16:53;;;;;;;37.30;23.63;;;;;;;;;;5116921;28;20523;-72
2020/12/02 08:19:31;;;;;;;35.53;24.13;;;;;;;;;;5117536;28;20470;-73
2020/12/02 08:22:01;;;;;;;38.83;24.03;;;;;;;;;;5132019;27;20532;-72
2020/12/02 08:24:34;;;;;;;40.13;25.27;;;;;;;;;;5138173;27;20458;-72
2020/12/02 08:27:03;;;;;;;37.30;24.33;;;;;;;;;;5122489;27;20461;-72
2020/12/02 08:29:31;;;;;;;38.73;24.00;;;;;;;;;;5119650;28;20463;-73
2020/12/02 08:32:02;;;;;;;35.90;23.67;;;;;;;;;;5118683;28;20943;-73
2020/12/02 08:34:36;;;;;;;40.87;25.50;;;;;;;;;;5134260;27;20460;-73
2020/12/02 08:37:33;;;;;;;39.23;24.63;;;;;;;;;;5128487;27;20781;-73
2020/12/02 08:40:21;;;;;;;35.30;23.20;;;;;;;;;;5055837;28;20458;-72
2020/12/02 08:42:49;;;;;;;38.13;24.63;;;;;;;;;;5110706;28;20440;-73
2020/12/02 08:45:26;;;;;;;40.87;25.60;;;;;;;;;;5118524;28;20603;-73
2020/12/02 08:48:00;;;;;;;36.47;24.87;;;;;;;;;;5129678;27;20748;-73
2020/12/02 08:50:36;;;;;;;36.50;24.20;;;;;;;;;;5138830;27;20449;-73
2020/12/02 08:53:07;;;;;;;37.07;24.37;;;;;;;;;;5126366;27;20485;-73
2020/12/02 08:56:13;;;;;;;;;;;;;;;;;;;;;
2020/12/02 08:58:55;;;;;;;35.50;23.47;;;;;;;;;;5123303;27;20449;-72
2020/12/02 09:01:27;;;;;;;38.60;25.77;;;;;;;;;;5138264;27;20452;-73
2020/12/02 09:03:55;;;;;;;36.10;23.60;;;;;;;;;;5129957;27;20439;-72
2020/12/02 09:06:31;;;;;;;33.13;23.90;;;;;;;;;;5129752;27;20556;-72
2020/12/02 09:09:06;;;;;;;42.83;24.70;;;;;;;;;;5120231;27;20732;-72
2020/12/02 09:11:34;;;;;;;33.00;24.27;;;;;;;;;;5117825;28;20461;-72
2020/12/02 09:14:03;;;;;;;40.93;25.47;;;;;;;;;;5131459;27;20482;-71
2020/12/02 09:16:35;;;;;;;42.70;25.73;;;;;;;;;;5131836;27;20772;-71
2020/12/02 09:19:06;;;;;;;36.30;25.10;;;;;;;;;;5118331;27;20470;-74
2020/12/02 09:21:34;;;;;;;35.90;24.40;;;;;;;;;;5130954;27;20458;-72
2020/12/02 09:24:05;;;;;;;40.20;25.77;;;;;;;;;;5137346;27;20450;-71
2020/12/02 09:29:17;;;;;;;38.40;23.70;;;;;;;;;;5134371;27;20682;-73
2020/12/02 09:31:44;;;;;;;35.37;23.93;;;;;;;;;;5134949;27;20723;-73
2020/12/02 09:34:12;;;;;;;36.33;24.40;;;;;;;;;;5136733;27;20724;-73
2020/12/02 09:36:40;;;;;;;36.33;25.20;;;;;;;;;;5137348;27;20870;-73
2020/12/02 09:39:11;;;;;;;36.07;23.70;;;;;;;;;;5138276;27;20496;-73
2020/12/02 09:41:46;;;;;;;37.90;24.83;;;;;;;;;;5139151;27;20852;-73
2020/12/02 09:44:29;;;;;;;39.60;24.90;;;;;;;;;;5155977;27;20968;-73
2020/12/02 09:46:59;;;;;;;33.63;23.60;;;;;;;;;;5149376;27;20929;-73
2020/12/02 09:49:31;;;;;;;35.10;24.37;;;;;;;;;;5138141;27;20526;-72
2020/12/02 09:52:23;;;;;;;36.40;24.37;;;;;;;;;;5135253;27;20446;-73
2020/12/02 09:54:50;;;;;;;33.47;23.00;;;;;;;;;;5136808;27;20434;-74
2020/12/02 09:57:19;;;;;;;33.83;23.63;;;;;;;;;;5135275;27;20438;-73
2020/12/02 09:59:47;;;;;;;29.93;22.37;;;;;;;;;;5134791;27;20494;-72
2020/12/02 10:02:22;;;;;;;33.50;22.50;;;;;;;;;;5136395;27;20911;-72
2020/12/02 10:05:07;;;;;;;35.17;23.90;;;;;;;;;;5136289;27;20445;-72
2020/12/02 10:07:43;;;;;;;34.50;22.27;;;;;;;;;;5128560;27;20531;-73
2020/12/02 10:10:32;;;;;;;39.40;22.60;;;;;;;;;;5134291;27;20438;-73
2020/12/02 10:13:26;;;;;;;32.87;22.47;;;;;;;;;;5115398;28;20522;-73
2020/12/02 10:16:08;;;;;;;37.43;24.40;;;;;;;;;;5116061;28;20447;-72
2020/12/02 10:18:46;;;;;;;35.30;23.50;;;;;;;;;;5116260;28;20562;-72
2020/12/02 10:21:21;;;;;;;32.43;21.67;;;;;;;;;;5117776;28;20474;-72
2020/12/02 10:24:09;;;;;;;35.43;23.60;;;;;;;;;;5115879;28;20951;-72
2020/12/02 10:26:57;;;;;;;37.57;25.23;;;;;;;;;;5109513;28;20831;-72
2020/12/02 10:29:30;;;;;;;35.70;23.60;;;;;;;;;;5115247;28;20863;-72
2020/12/02 10:32:02;;;;;;;36.23;24.53;;;;;;;;;;5115272;28;20440;-73
2020/12/02 10:34:31;;;;;;;37.43;24.10;;;;;;;;;;5120991;27;20916;-72
2020/12/02 10:37:03;;;;;;;40.47;23.73;;;;;;;;;;5136635;27;20732;-72
2020/12/02 10:39:35;;;;;;;34.60;22.03;;;;;;;;;;5136834;27;20449;-72
2020/12/02 10:42:52;;;;;;;34.53;23.10;;;;;;;;;;5138993;27;20446;-71
2020/12/02 10:45:23;;;;;;;35.47;22.60;;;;;;;;;;5135152;27;20749;-72
2020/12/02 10:48:08;;;;;;;34.13;23.53;;;;;;;;;;5136420;27;20446;-72
2020/12/02 10:50:40;;;;;;;32.00;22.20;;;;;;;;;;5135789;27;20450;-72
2020/12/02 10:53:10;;;;;;;34.40;22.73;;;;;;;;;;5135975;27;20550;-72
2020/12/02 10:55:45;;;;;;;34.23;23.63;;;;;;;;;;5136858;28;20478;-74
2020/12/02 10:58:14;;;;;;;35.03;24.60;;;;;;;;;;5136374;27;20453;-73
2020/12/02 11:00:46;;;;;;;28.67;22.30;;;;;;;;;;5120406;28;20446;-75
2020/12/02 11:03:23;;;;;;;36.83;23.57;;;;;;;;;;5136639;28;20511;-74
2020/12/02 11:06:01;;;;;;;35.07;22.47;;;;;;;;;;5136679;27;20510;-74
2020/12/02 11:08:40;;;;;;;33.00;22.60;;;;;;;;;;5140011;27;20733;-73
2020/12/02 11:11:13;;;;;;;35.80;25.10;;;;;;;;;;5140614;27;20456;-74
2020/12/02 11:13:48;;;;;;;35.60;23.10;;;;;;;;;;5141122;27;20517;-74
2020/12/02 11:16:21;;;;;;;30.53;21.43;;;;;;;;;;5139910;27;20449;-74
2020/12/02 11:18:56;;;;;;;38.10;27.20;;;;;;;;;;5138407;27;20537;-73
2020/12/02 11:21:32;;;;;;;33.47;22.90;;;;;;;;;;5140199;27;20476;-73
2020/12/02 11:24:19;;;;;;;34.87;23.27;;;;;;;;;;5140951;27;20956;-73
2020/12/02 11:26:51;;;;;;;37.70;23.10;;;;;;;;;;5143431;27;20454;-73
2020/12/02 11:29:23;;;;;;;32.60;22.60;;;;;;;;;;5128678;27;20507;-73
2020/12/02 11:32:08;;;;;;;34.30;23.40;;;;;;;;;;5148718;27;20454;-73
2020/12/02 11:34:43;;;;;;;41.30;23.80;;;;;;;;;;5140074;27;20462;-72
2020/12/02 11:37:13;;;;;;;47.33;28.87;;;;;;;;;;5148715;27;20445;-72
2020/12/02 11:40:00;;;;;;;36.83;23.70;;;;;;;;;;5154131;27;21026;-73
2020/12/02 11:42:33;;;;;;;32.07;22.70;;;;;;;;;;5154928;27;20786;-73
2020/12/02 11:45:01;;;;;;;33.37;22.37;;;;;;;;;;5138529;27;20601;-72
2020/12/02 11:47:44;;;;;;;36.03;23.40;;;;;;;;;;5138738;27;20445;-74
2020/12/02 11:50:17;;;;;;;31.97;21.37;;;;;;;;;;5137768;27;20457;-73
2020/12/02 11:52:56;;;;;;;32.90;22.73;;;;;;;;;;5127974;27;20474;-73
2020/12/02 11:55:24;;;;;;;32.67;21.33;;;;;;;;;;5119096;28;20481;-72
2020/12/02 11:57:53;;;;;;;32.67;21.60;;;;;;;;;;5119909;28;20886;-71
2020/12/02 12:00:45;;;;;;;35.27;22.30;;;;;;;;;;5123449;27;20469;-74
2020/12/02 12:03:33;;;;;;;36.40;23.63;;;;;;;;;;5128286;27;20444;-74
2020/12/02 12:06:03;;;;;;;31.87;22.70;;;;;;;;;;5118933;27;20750;-73
2020/12/02 12:08:37;;;;;;;35.27;24.50;;;;;;;;;;5137227;27;21113;-73
2020/12/02 12:11:13;;;;;;;36.93;22.90;;;;;;;;;;5138006;27;20807;-71
2020/12/02 12:13:54;;;;;;;35.07;22.90;;;;;;;;;;5137288;27;20570;-71
2020/12/02 12:16:35;;;;;;;30.90;21.50;;;;;;;;;;5119648;27;20462;-72
2020/12/02 12:19:14;;;;;;;33.70;23.00;;;;;;;;;;5127024;27;20481;-73
2020/12/02 12:21:57;;;;;;;33.80;23.47;;;;;;;;;;5139995;27;20446;-73
2020/12/02 12:24:28;;;;;;;40.50;25.13;;;;;;;;;;5149550;27;20442;-73
2020/12/02 12:26:59;;;;;;;36.33;23.17;;;;;;;;;;5138172;27;20447;-73
2020/12/02 12:29:42;;;;;;;35.20;22.97;;;;;;;;;;5138192;27;20454;-73
2020/12/02 12:32:17;;;;;;;40.87;27.63;;;;;;;;;;5142196;27;20454;-73
2020/12/02 12:34:48;;;;;;;40.60;24.90;;;;;;;;;;5143982;27;20438;-72
2020/12/02 12:37:20;;;;;;;33.90;23.00;;;;;;;;;;5138284;27;20454;-74
2020/12/02 12:39:50;;;;;;;35.63;21.67;;;;;;;;;;5137592;27;20446;-74
2020/12/02 12:42:21;;;;;;;37.67;24.93;;;;;;;;;;5134461;27;20456;-75
2020/12/02 12:44:50;;;;;;;38.27;23.20;;;;;;;;;;5118200;28;20863;-74
2020/12/02 12:47:25;;;;;;;35.93;24.83;;;;;;;;;;5136775;27;20454;-74
2020/12/02 12:49:53;;;;;;;37.07;22.77;;;;;;;;;;5138340;27;20458;-74
2020/12/02 12:52:25;;;;;;;41.37;27.17;;;;;;;;;;5136917;27;20461;-73
2020/12/02 12:54:54;;;;;;;39.37;26.60;;;;;;;;;;5139617;27;20541;-74
2020/12/02 12:57:23;;;;;;;38.03;25.37;;;;;;;;;;5138452;27;20890;-74
2020/12/02 12:59:58;;;;;;;40.40;26.40;;;;;;;;;;5138041;27;20461;-74
2020/12/02 13:02:27;;;;;;;36.40;23.53;;;;;;;;;;5137610;27;20486;-74
2020/12/02 13:05:03;;;;;;;35.73;24.53;;;;;;;;;;5138043;27;20902;-73
2020/12/02 13:07:31;;;;;;;40.90;25.57;;;;;;;;;;5121148;27;20455;-74
2020/12/02 13:10:21;;;;;;;41.63;24.03;;;;;;;;;;5120434;27;20449;-73
2020/12/02 13:16:00;;;;;;;37.67;25.57;;;;;;;;;;5138434;27;20445;-74
2020/12/02 13:18:49;;;;;;;42.50;25.20;;;;;;;;;;5138978;27;20941;-73
2020/12/02 13:21:27;;;;;;;41.67;26.23;;;;;;;;;;5107642;28;20549;-72
2020/12/02 13:24:04;;;;;;;38.27;25.30;;;;;;;;;;5116780;28;20866;-74
2020/12/02 13:26:34;;;;;;;42.57;26.17;;;;;;;;;;5129154;27;20862;-73
2020/12/02 13:29:05;;;;;;;39.13;24.93;;;;;;;;;;5137208;27;20438;-74
2020/12/02 13:31:36;;;;;;;37.43;25.60;;;;;;;;;;5134891;27;20975;-74
2020/12/02 13:34:31;;;;;;;45.43;27.30;;;;;;;;;;5133765;27;20514;-74
2020/12/02 13:36:59;;;;;;;41.87;25.30;;;;;;;;;;5127732;27;20443;-74
2020/12/02 13:39:29;;;;;;;38.80;27.00;;;;;;;;;;5158263;27;20514;-74
2020/12/02 13:41:57;;;;;;;35.47;22.70;;;;;;;;;;5140313;27;20522;-74
2020/12/02 13:44:29;;;;;;;40.73;24.20;;;;;;;;;;5136979;27;20445;-73
2020/12/02 13:47:03;;;;;;;36.73;24.37;;;;;;;;;;5136985;27;20550;-73
2020/12/02 13:49:31;;;;;;;38.43;24.73;;;;;;;;;;5135855;27;21149;-74
2020/12/02 13:52:12;;;;;;;40.43;24.80;;;;;;;;;;5137845;27;20450;-74
2020/12/02 13:54:45;;;;;;;42.87;27.03;;;;;;;;;;5136272;27;20478;-74
2020/12/02 13:57:36;;;;;;;36.90;24.50;;;;;;;;;;5140521;27;20750;-72
2020/12/02 14:00:09;;;;;;;38.73;23.63;;;;;;;;;;5138209;27;20478;-72
2020/12/02 14:02:53;;;;;;;40.23;26.57;;;;;;;;;;5135039;27;20464;-75
2020/12/02 14:05:31;;;;;;;42.20;27.67;;;;;;;;;;5153516;27;20544;-73
2020/12/02 14:08:01;;;;;;;36.83;24.43;;;;;;;;;;5147558;27;20835;-73
2020/12/02 14:10:33;;;;;;;42.70;25.67;;;;;;;;;;5137273;27;20466;-74
2020/12/02 14:13:05;;;;;;;41.17;27.10;;;;;;;;;;5125482;27;20538;-73
2020/12/02 14:15:40;;;;;;;41.30;26.23;;;;;;;;;;5138386;27;20446;-73
2020/12/02 14:18:11;;;;;;;39.73;26.47;;;;;;;;;;5146138;27;20453;-73
2020/12/02 14:20:41;;;;;;;39.73;25.47;;;;;;;;;;5133889;27;20530;-75
2020/12/02 14:23:12;;;;;;;40.83;27.07;;;;;;;;;;5149767;27;20461;-73
2020/12/02 14:25:47;;;;;;;40.10;27.77;;;;;;;;;;5144994;27;20459;-73
2020/12/02 14:28:16;;;;;;;39.47;27.20;;;;;;;;;;5134931;27;20505;-74
2020/12/02 14:30:46;;;;;;;40.63;26.57;;;;;;;;;;5144269;27;20548;-73
2020/12/02 14:33:17;;;;;;;45.87;28.23;;;;;;;;;;5141401;27;20561;-76
2020/12/02 14:36:01;;;;;;;41.80;26.70;;;;;;;;;;5145067;27;20453;-74
2020/12/02 14:38:32;;;;;;;39.10;26.47;;;;;;;;;;5135249;27;20477;-73
2020/12/02 14:41:02;;;;;;;40.07;26.80;;;;;;;;;;5136961;27;20454;-73
2020/12/02 14:43:32;;;;;;;39.40;26.87;;;;;;;;;;5128908;27;20443;-74
2020/12/02 14:46:03;;;;;;;45.70;27.10;;;;;;;;;;5136709;27;20450;-73
2020/12/02 14:48:51;;;;;;;36.47;25.00;;;;;;;;;;5140178;27;20438;-73
2020/12/02 14:51:20;;;;;;;36.60;24.20;;;;;;;;;;5128891;27;20497;-74
2020/12/02 14:54:01;;;;;;;40.00;26.07;;;;;;;;;;5110064;28;20486;-75
2020/12/02 14:56:37;;;;;;;44.83;27.27;;;;;;;;;;5095831;28;20814;-73